Time;durP1;ratioP1;P1;durP2;ratioP2;P2;SDS_P1;SDS_P2;PMS_P1;PMS_P2;Temp;Humidity;BMP_temperature;BMP_pressure;BME280_temperature;BME280_humidity;BME280_pressure;Samples;Min_cycle;Max_cycle;Signal;HPM_P1;HPM_P2
2022/05/06 00:00:07;;;;;;;48.92;20.62;;;;;;;13.26;33.35;101298.91;1693377;82;21070;-56
2022/05/06 00:02:34;;;;;;;56.02;22.67;;;;;;;13.33;33.32;101299.84;1693648;82;21127;-56
2022/05/06 00:05:02;;;;;;;70.32;25.52;;;;;;;13.19;33.47;101304.48;1694503;82;21337;-55
2022/05/06 00:07:29;;;;;;;54.70;24.92;;;;;;;13.24;33.46;101306.61;1694827;82;21971;-63
2022/05/06 00:09:56;;;;;;;56.70;25.12;;;;;;;13.03;33.70;101307.19;1693392;82;21012;-56
2022/05/06 00:12:23;;;;;;;83.22;34.60;;;;;;;13.07;33.76;101306.70;1694439;82;21078;-63
2022/05/06 00:14:50;;;;;;;99.95;39.25;;;;;;;13.14;33.61;101308.94;1692805;84;21549;-55
2022/05/06 00:17:18;;;;;;;112.75;39.35;;;;;;;13.02;33.68;101304.27;1694776;82;21004;-56
2022/05/06 00:19:45;;;;;;;108.15;42.43;;;;;;;13.07;33.73;101304.58;1681956;82;21183;-57
2022/05/06 00:22:12;;;;;;;114.95;44.05;;;;;;;13.01;33.77;101307.38;1694381;82;22150;-61
2022/05/06 00:24:40;;;;;;;134.27;50.67;;;;;;;13.07;33.69;101311.12;1695238;82;21126;-57
2022/05/06 00:27:07;;;;;;;167.43;59.53;;;;;;;13.17;33.54;101316.92;1694000;82;20996;-60
2022/05/06 00:29:35;;;;;;;155.27;60.80;;;;;;;13.18;33.54;101313.31;1693460;82;20968;-64
2022/05/06 00:32:02;;;;;;;182.25;68.78;;;;;;;13.28;33.41;101313.12;1694313;82;21657;-58
2022/05/06 00:34:29;;;;;;;172.80;63.38;;;;;;;13.22;33.52;101308.07;1693376;82;21496;-58
2022/05/06 00:36:56;;;;;;;169.45;68.35;;;;;;;13.14;33.58;101319.88;1693715;82;21456;-57
2022/05/06 00:39:23;;;;;;;172.13;64.75;;;;;;;13.14;33.50;101318.11;1695297;82;21067;-59
2022/05/06 00:41:53;;;;;;;165.37;67.03;;;;;;;13.00;33.65;101324.57;1693076;82;21010;-62
2022/05/06 00:44:22;;;;;;;170.20;66.82;;;;;;;12.87;33.90;101320.69;1694930;82;21263;-58
2022/05/06 00:46:50;;;;;;;187.03;69.90;;;;;;;12.88;33.96;101322.84;1694569;82;21810;-58
2022/05/06 00:49:17;;;;;;;162.70;64.72;;;;;;;12.89;33.92;101318.73;1693761;82;21014;-57
2022/05/06 00:51:44;;;;;;;168.25;62.90;;;;;;;12.93;33.91;101318.39;1694327;82;21074;-57
2022/05/06 00:54:11;;;;;;;153.15;58.85;;;;;;;12.98;33.85;101323.91;1693381;82;21629;-57
2022/05/06 00:56:38;;;;;;;150.05;56.85;;;;;;;12.90;33.95;101317.73;1693971;82;22152;-55
2022/05/06 00:59:05;;;;;;;152.55;56.37;;;;;;;12.83;34.04;101319.41;1693846;82;21012;-55
2022/05/06 01:01:32;;;;;;;152.72;57.03;;;;;;;12.88;33.91;101323.66;1694707;82;21011;-57
2022/05/06 01:03:59;;;;;;;140.55;54.27;;;;;;;12.87;33.87;101328.55;1693379;82;20971;-61
2022/05/06 01:06:26;;;;;;;140.82;54.05;;;;;;;12.78;34.07;101333.50;1694624;82;21544;-56
2022/05/06 01:08:53;;;;;;;146.28;56.05;;;;;;;12.78;34.11;101330.89;1694294;82;21268;-57
2022/05/06 01:11:20;;;;;;;142.90;55.70;;;;;;;12.80;33.98;101338.06;1694464;82;21042;-57
2022/05/06 01:13:47;;;;;;;135.82;50.43;;;;;;;12.63;34.17;101341.75;1694858;82;21094;-65
2022/05/06 01:16:16;;;;;;;134.93;52.00;;;;;;;12.55;34.36;101343.09;1692498;82;20999;-58
2022/05/06 01:18:47;;;;;;;133.50;48.87;;;;;;;12.57;34.30;101338.00;1693871;82;21018;-56
2022/05/06 01:21:21;;;;;;;131.95;51.20;;;;;;;12.56;34.37;101341.61;1663097;84;21260;-56
2022/05/06 01:23:49;;;;;;;129.32;49.05;;;;;;;12.40;34.58;101344.28;1683402;82;20991;-59
2022/05/06 01:26:16;;;;;;;126.42;48.70;;;;;;;12.47;34.53;101345.74;1693989;82;21124;-56
2022/05/06 01:28:43;;;;;;;124.18;47.03;;;;;;;12.45;34.63;101345.89;1694081;82;21471;-56
2022/05/06 01:31:19;;;;;;;111.52;45.12;;;;;;;12.37;34.75;101346.73;1663084;84;21046;-56
2022/05/06 01:33:54;;;;;;;122.92;47.67;;;;;;;12.41;34.71;101344.59;1693724;82;21085;-57
2022/05/06 01:36:16;;;;;;;117.57;44.90;;;;;;;12.41;34.79;101343.30;1691616;82;21333;-56
2022/05/06 01:38:46;;;;;;;103.62;39.05;;;;;;;12.31;34.89;101346.12;1692998;84;21031;-55
2022/05/06 01:41:23;;;;;;;101.78;39.50;;;;;;;12.23;35.08;101353.95;1683087;82;21059;-56
2022/05/06 01:43:59;;;;;;;90.87;36.73;;;;;;;12.13;35.21;101358.08;1680951;82;21181;-57
2022/05/06 01:46:27;;;;;;;89.72;34.65;;;;;;;11.99;35.50;101356.62;1662276;84;21548;-56
2022/05/06 01:48:56;;;;;;;83.90;31.62;;;;;;;12.07;35.48;101364.44;1694030;82;21092;-55
2022/05/06 01:51:25;;;;;;;85.17;33.02;;;;;;;11.92;35.62;101356.45;1694380;82;21131;-56
2022/05/06 01:53:52;;;;;;;78.05;31.70;;;;;;;11.87;35.77;101362.18;1639421;84;22034;-64
2022/05/06 01:56:21;;;;;;;77.82;30.60;;;;;;;11.96;35.60;101371.31;1694426;82;21126;-56
2022/05/06 01:58:48;;;;;;;64.77;26.37;;;;;;;11.96;35.63;101372.63;1693150;84;21277;-56
2022/05/06 02:01:15;;;;;;;62.58;26.35;;;;;;;11.97;35.54;101369.02;1694628;82;21083;-55
2022/05/06 02:06:29;;;;;;;63.00;24.85;;;;;;;11.96;35.60;101373.44;1693399;82;21042;-55
2022/05/06 02:08:58;;;;;;;65.17;25.72;;;;;;;12.10;35.46;101379.80;1693283;82;21047;-56
2022/05/06 02:11:26;;;;;;;68.10;27.22;;;;;;;12.13;35.36;101380.78;1693636;82;21189;-56
2022/05/06 02:13:56;;;;;;;64.25;25.35;;;;;;;12.16;35.29;101383.07;1687046;82;21641;-56
2022/05/06 02:16:30;;;;;;;57.55;23.05;;;;;;;12.26;35.26;101392.03;1661343;82;21086;-57
2022/05/06 02:19:03;;;;;;;53.40;22.55;;;;;;;12.30;35.16;101394.13;1654923;84;21130;-55
2022/05/06 02:21:34;;;;;;;50.25;19.25;;;;;;;12.26;35.28;101395.95;1652868;82;22409;-62
2022/05/06 02:24:03;;;;;;;51.40;21.00;;;;;;;12.21;35.38;101396.45;1693016;82;21538;-55
2022/05/06 02:26:31;;;;;;;53.68;21.62;;;;;;;12.22;35.37;101398.57;1694079;82;21075;-55
2022/05/06 02:28:59;;;;;;;51.92;20.75;;;;;;;12.29;35.26;101410.81;1693085;82;20999;-60
2022/05/06 02:34:16;;;;;;;46.48;21.40;;;;;;;12.46;35.08;101404.23;1694680;82;21026;-56
2022/05/06 02:36:41;;;;;;;59.25;22.00;;;;;;;12.48;35.11;101417.48;1693860;82;21135;-64
2022/05/06 02:39:08;;;;;;;52.25;20.17;;;;;;;12.55;35.01;101417.14;1694149;82;20948;-56
2022/05/06 02:41:35;;;;;;;54.65;22.67;;;;;;;12.62;34.92;101416.80;1694838;82;21462;-56
2022/05/06 02:44:04;;;;;;;47.23;21.93;;;;;;;12.65;34.86;101421.70;1694338;82;21086;-56
2022/05/06 02:46:36;;;;;;;57.23;23.85;;;;;;;12.68;34.83;101426.25;1693695;82;20994;-65
2022/05/06 02:49:04;;;;;;;52.85;23.60;;;;;;;12.87;34.65;101425.36;1693559;82;21305;-55
2022/05/06 02:51:32;;;;;;;62.50;23.90;;;;;;;12.83;34.74;101424.08;1693713;82;21415;-55
2022/05/06 02:54:00;;;;;;;51.25;22.65;;;;;;;12.90;34.68;101430.27;1694854;82;21075;-55
2022/05/06 02:56:32;;;;;;;61.88;24.55;;;;;;;12.89;34.87;101429.14;1694200;82;21023;-57
2022/05/06 02:59:01;;;;;;;60.30;27.20;;;;;;;13.13;34.61;101438.69;1693045;82;21470;-63
2022/05/06 03:01:31;;;;;;;65.72;28.30;;;;;;;13.42;34.38;101427.61;1694978;82;21531;-56
2022/05/06 03:04:00;;;;;;;75.45;30.17;;;;;;;13.82;33.85;101430.43;1693266;82;21082;-55
2022/05/06 03:06:26;;;;;;;73.65;31.00;;;;;;;14.16;33.24;101437.54;1684897;83;21513;-56
2022/05/06 03:08:53;;;;;;;73.87;30.68;;;;;;;14.24;33.08;101431.72;1687464;83;21016;-57
2022/05/06 03:11:22;;;;;;;76.45;32.48;;;;;;;14.32;32.99;101432.16;1683347;83;21162;-55
2022/05/06 03:13:50;;;;;;;72.55;34.60;;;;;;;14.59;32.72;101434.70;1682946;83;21187;-55
2022/05/06 03:16:18;;;;;;;80.87;33.38;;;;;;;14.94;32.27;101438.41;1684254;83;21051;-56
2022/05/06 03:18:45;;;;;;;76.47;33.50;;;;;;;15.29;32.06;101436.80;1672385;83;21118;-59
2022/05/06 03:21:11;;;;;;;77.85;33.08;;;;;;;15.77;31.31;101435.81;1659330;84;21679;-56
2022/05/06 03:23:39;;;;;;;80.60;36.08;;;;;;;16.25;30.81;101438.64;1685579;83;21129;-55
2022/05/06 03:26:05;;;;;;;89.20;37.80;;;;;;;16.83;30.26;101443.68;1684500;83;21907;-56
2022/05/06 03:28:34;;;;;;;111.23;46.73;;;;;;;17.48;29.50;101444.11;1684792;83;21011;-60
2022/05/06 03:31:02;;;;;;;110.17;47.83;;;;;;;18.01;28.96;101442.08;1684392;83;21144;-56
2022/05/06 03:33:33;;;;;;;;;;;;;;;18.46;28.24;101444.38;1686520;83;21440;-55
2022/05/06 03:36:02;;;;;;;123.87;55.50;;;;;;;18.90;27.65;101446.81;1685065;83;20134;-56
2022/05/06 03:38:31;;;;;;;126.70;56.40;;;;;;;19.35;27.19;101454.75;1685650;83;21779;-56
2022/05/06 03:40:58;;;;;;;143.50;64.70;;;;;;;19.79;25.78;101456.55;1683069;83;21304;-59
2022/05/06 03:43:27;;;;;;;150.47;63.13;;;;;;;19.84;25.65;101458.54;1685091;83;21501;-55
2022/05/06 03:45:55;;;;;;;146.20;62.43;;;;;;;19.84;25.65;101458.54;1684230;83;21567;-57
2022/05/06 03:48:24;;;;;;;136.43;61.83;;;;;;;19.92;25.80;101450.33;1685568;83;21737;-56
2022/05/06 03:53:40;;;;;;;141.00;66.43;;;;;;;20.51;25.62;101457.48;1685051;83;21734;-55
2022/05/06 03:56:07;;;;;;;144.57;68.50;;;;;;;20.81;24.86;101456.25;1683502;84;21083;-56
2022/05/06 03:58:37;;;;;;;166.87;76.87;;;;;;;20.96;24.54;101461.98;1684174;83;21163;-56
2022/05/06 04:01:07;;;;;;;157.50;75.00;;;;;;;21.00;24.20;101457.84;1685205;83;21088;-56
2022/05/06 04:03:34;;;;;;;168.97;79.97;;;;;;;21.01;23.83;101464.77;1684607;83;21270;-55
2022/05/06 04:06:01;;;;;;;160.27;77.77;;;;;;;20.90;24.17;101470.80;1692549;82;21581;-57
2022/05/06 04:08:29;;;;;;;176.30;83.97;;;;;;;21.04;24.11;101464.32;1694854;82;21058;-64
2022/05/06 04:10:57;;;;;;;174.70;82.47;;;;;;;21.24;24.14;101472.53;1694739;82;21549;-56
2022/05/06 04:13:25;;;;;;;172.77;86.53;;;;;;;21.49;23.80;101470.60;1695563;82;21137;-56
2022/05/06 04:15:51;;;;;;;166.00;81.60;;;;;;;21.70;23.35;101469.78;1694890;82;21993;-55
2022/05/06 04:18:18;;;;;;;159.53;78.03;;;;;;;21.82;22.92;101463.97;1694516;82;21064;-63
2022/05/06 04:23:35;;;;;;;174.77;87.93;;;;;;;21.84;22.93;101480.49;1694593;82;20995;-55
2022/05/06 04:26:13;;;;;;;190.90;92.23;;;;;;;21.91;22.89;101474.56;1693157;82;21031;-59
2022/05/06 04:28:43;;;;;;;185.20;95.60;;;;;;;21.97;22.76;101476.81;1694548;82;21504;-55
2022/05/06 04:31:10;;;;;;;192.93;97.30;;;;;;;21.98;22.76;101479.26;1693861;82;21425;-57
2022/05/06 04:33:39;;;;;;;180.50;90.77;;;;;;;22.16;22.96;101477.55;1695809;82;21062;-57
2022/05/06 04:36:07;;;;;;;174.60;88.93;;;;;;;22.38;22.67;101476.47;1692869;82;21072;-61
2022/05/06 04:38:35;;;;;;;170.90;87.77;;;;;;;22.43;22.76;101474.75;1694561;82;21078;-58
2022/05/06 04:41:03;;;;;;;184.43;94.53;;;;;;;22.65;22.44;101480.77;1694774;82;21125;-57
2022/05/06 04:43:32;;;;;;;184.17;97.77;;;;;;;22.72;22.19;101488.11;1694712;82;21086;-56
2022/05/06 04:46:00;;;;;;;191.87;99.03;;;;;;;22.80;22.23;101478.44;1693856;82;21078;-62
2022/05/06 04:48:29;;;;;;;165.23;83.93;;;;;;;22.99;22.09;101483.10;1662854;82;21882;-55
2022/05/06 04:50:56;;;;;;;159.77;86.17;;;;;;;23.04;21.91;101489.34;1693544;84;21105;-55
2022/05/06 04:53:23;;;;;;;152.27;82.83;;;;;;;23.28;21.95;101481.28;1694998;82;21935;-55
2022/05/06 04:55:51;;;;;;;144.63;77.77;;;;;;;23.64;21.58;101472.09;1694131;82;21106;-65
2022/05/06 04:58:19;;;;;;;148.37;79.33;;;;;;;23.82;21.23;101476.39;1694714;82;21104;-58
2022/05/06 05:00:47;;;;;;;154.50;78.73;;;;;;;24.04;21.09;101483.94;1683650;82;21071;-56
2022/05/06 05:03:15;;;;;;;153.37;81.30;;;;;;;24.06;21.29;101480.25;1662746;84;21024;-56
2022/05/06 05:05:44;;;;;;;146.63;74.57;;;;;;;24.13;20.97;101479.53;1661690;84;21198;-66
2022/05/06 05:08:11;;;;;;;136.97;72.10;;;;;;;24.18;21.10;101476.44;1692451;84;21906;-57
2022/05/06 05:10:39;;;;;;;126.73;65.57;;;;;;;24.24;21.14;101478.64;1692961;84;21047;-55
2022/05/06 05:13:08;;;;;;;117.03;64.57;;;;;;;24.48;21.10;101489.95;1693102;84;21094;-55
2022/05/06 05:15:36;;;;;;;104.87;58.57;;;;;;;24.84;21.01;101488.54;1692885;84;21520;-60
2022/05/06 05:18:03;;;;;;;103.33;57.73;;;;;;;25.05;20.40;101490.13;1660485;84;21696;-56
2022/05/06 05:20:32;;;;;;;93.57;51.73;;;;;;;25.11;20.62;101493.95;1693333;84;21877;-57
2022/05/06 05:23:01;;;;;;;76.93;41.83;;;;;;;25.30;20.47;101489.09;1662309;84;21071;-54
2022/05/06 05:25:29;;;;;;;68.00;38.10;;;;;;;25.48;20.18;101488.73;1693828;84;21078;-55
2022/05/06 05:27:56;;;;;;;64.40;35.07;;;;;;;25.69;19.74;101491.61;1691985;84;21529;-58
2022/05/06 05:30:25;;;;;;;60.03;31.77;;;;;;;25.59;19.92;101486.97;1692320;84;21610;-59
2022/05/06 05:32:53;;;;;;;55.93;31.07;;;;;;;25.60;19.44;101481.09;1661564;84;21098;-58
2022/05/06 05:35:21;;;;;;;55.47;34.03;;;;;;;25.61;19.57;101488.05;1693275;84;21063;-56
2022/05/06 05:37:50;;;;;;;52.67;29.67;;;;;;;25.67;19.68;101489.17;1691739;84;21556;-64
2022/05/06 05:40:18;;;;;;;47.27;27.47;;;;;;;25.61;19.71;101489.38;1692437;84;21452;-56
2022/05/06 05:42:45;;;;;;;51.47;29.47;;;;;;;25.62;19.73;101495.02;1671306;84;21195;-58
2022/05/06 05:50:46;;;;;;;53.40;26.83;;;;;;;26.33;19.21;101500.11;1671388;84;21527;-57
2022/05/06 05:53:13;;;;;;;44.43;25.70;;;;;;;26.51;18.95;101497.58;1692294;84;21133;-58
2022/05/06 05:55:40;;;;;;;37.70;22.13;;;;;;;26.58;19.27;101493.61;1692811;84;21569;-55
2022/05/06 05:58:08;;;;;;;36.47;20.53;;;;;;;26.79;19.04;101485.16;1692436;82;21026;-56
2022/05/06 06:00:36;;;;;;;37.93;22.37;;;;;;;27.05;18.70;101487.89;1692578;84;20975;-57
2022/05/06 06:03:04;;;;;;;34.23;20.10;;;;;;;26.91;18.39;101491.08;1691959;84;21117;-58
2022/05/06 06:05:33;;;;;;;28.77;16.87;;;;;;;26.75;18.54;101499.32;1688982;83;21094;-56
2022/05/06 06:08:01;;;;;;;30.83;17.47;;;;;;;26.81;18.52;101495.05;1677566;84;21109;-57
2022/05/06 06:10:28;;;;;;;29.93;16.10;;;;;;;27.11;18.41;101493.58;1678446;84;21008;-56
2022/05/06 06:12:58;;;;;;;28.40;16.57;;;;;;;27.36;18.27;101498.20;1677902;84;21072;-57
2022/05/06 06:15:25;;;;;;;31.87;17.37;;;;;;;27.18;18.01;101503.50;1677254;84;21415;-62
2022/05/06 06:17:52;;;;;;;30.37;16.63;;;;;;;27.04;17.79;101504.49;1677597;84;21464;-54
2022/05/06 06:20:21;;;;;;;29.40;17.23;;;;;;;26.79;17.92;101502.55;1677661;84;21169;-54
2022/05/06 06:22:48;;;;;;;26.67;15.33;;;;;;;26.77;18.16;101502.52;1662137;84;21054;-57
2022/05/06 06:25:15;;;;;;;23.50;13.67;;;;;;;26.92;18.26;101507.39;1677178;84;21277;-63
2022/05/06 06:27:45;;;;;;;26.37;15.10;;;;;;;27.19;17.72;101494.94;1677467;84;21553;-56
2022/05/06 06:30:14;;;;;;;23.38;15.15;;;;;;;27.14;17.48;101494.39;1677922;84;21596;-57
2022/05/06 06:32:41;;;;;;;24.20;13.00;;;;;;;26.76;17.84;101503.06;1678094;84;21161;-57
2022/05/06 06:35:09;;;;;;;22.70;13.73;;;;;;;26.58;17.65;101504.84;1677046;84;20975;-58
2022/05/06 06:37:38;;;;;;;22.80;13.40;;;;;;;26.41;17.67;101503.66;1675881;84;21591;-57
2022/05/06 06:40:07;;;;;;;23.93;13.33;;;;;;;26.33;17.92;101510.30;1677679;84;21076;-60
2022/05/06 06:42:33;;;;;;;20.07;11.90;;;;;;;26.27;17.84;101511.85;1678563;84;21098;-65
2022/05/06 06:45:05;;;;;;;;;;;;;;;26.29;18.24;101507.03;1643382;84;21175;-58
2022/05/06 06:47:34;;;;;;;23.27;13.30;;;;;;;26.40;17.57;101510.88;1677055;84;20139;-57
2022/05/06 06:50:12;;;;;;;21.33;12.23;;;;;;;26.31;18.06;101518.29;1677378;84;21028;-54
2022/05/06 06:52:56;;;;;;;20.93;10.73;;;;;;;26.24;17.74;101515.83;1673730;84;21094;-62
2022/05/06 06:55:22;;;;;;;18.20;9.63;;;;;;;26.20;17.99;101508.06;1677658;84;21534;-58
2022/05/06 06:57:50;;;;;;;17.87;9.10;;;;;;;26.37;17.47;101507.38;1677876;84;21173;-56
2022/05/06 07:00:19;;;;;;;14.93;8.40;;;;;;;26.26;17.23;101510.25;1677631;84;21108;-55
2022/05/06 07:02:46;;;;;;;16.00;8.17;;;;;;;26.27;17.35;101511.85;1661553;84;21059;-56
2022/05/06 07:05:12;;;;;;;14.57;7.70;;;;;;;26.28;17.23;101506.23;1677719;84;21436;-63
2022/05/06 07:13:10;;;;;;;19.50;11.00;;;;;;;25.76;17.63;101508.23;1677118;85;21133;-56
2022/05/06 07:15:37;;;;;;;19.03;11.80;;;;;;;25.98;17.52;101504.69;1677912;84;21064;-54
2022/05/06 07:18:04;;;;;;;23.57;15.07;;;;;;;26.04;17.41;101503.14;1677759;84;21076;-60
2022/05/06 07:20:32;;;;;;;25.63;14.70;;;;;;;26.21;17.26;101492.28;1677954;84;20961;-58
2022/05/06 07:22:59;;;;;;;20.70;11.60;;;;;;;26.36;17.72;101512.97;1677600;84;21258;-55
2022/05/06 07:25:26;;;;;;;19.70;10.60;;;;;;;26.36;16.90;101511.09;1677493;84;21067;-56
2022/05/06 07:27:53;;;;;;;19.87;11.47;;;;;;;26.34;16.95;101507.09;1678423;84;20936;-56
2022/05/06 07:30:20;;;;;;;21.43;12.97;;;;;;;26.19;16.91;101505.92;1677455;84;21095;-63
2022/05/06 07:32:46;;;;;;;21.20;13.47;;;;;;;25.80;17.09;101505.36;1677490;85;21455;-58
2022/05/06 07:35:13;;;;;;;23.13;13.50;;;;;;;25.87;17.08;101507.80;1677936;84;21118;-59
2022/05/06 07:37:41;;;;;;;32.90;19.37;;;;;;;25.97;17.28;101505.22;1678663;84;21019;-55
2022/05/06 07:40:11;;;;;;;25.33;14.10;;;;;;;25.98;17.20;101506.82;1678319;84;21063;-56
2022/05/06 07:42:38;;;;;;;28.30;16.23;;;;;;;25.94;17.36;101507.86;1678219;84;21509;-58
2022/05/06 07:45:07;;;;;;;54.70;28.50;;;;;;;26.33;17.59;101502.78;1677891;84;21046;-56
2022/05/06 07:47:33;;;;;;;45.00;27.73;;;;;;;26.40;16.78;101506.87;1678313;84;21079;-57
2022/05/06 07:50:01;;;;;;;41.17;27.03;;;;;;;26.13;16.75;101513.61;1678225;84;21055;-57
2022/05/06 07:52:28;;;;;;;44.93;27.77;;;;;;;25.99;16.61;101512.97;1677508;84;21076;-57
2022/05/06 07:54:54;;;;;;;42.33;29.97;;;;;;;25.55;16.83;101509.09;1677591;84;21875;-55
2022/05/06 07:57:21;;;;;;;40.97;27.03;;;;;;;25.42;17.33;101499.61;1678384;84;21098;-56
2022/05/06 07:59:48;;;;;;;52.73;32.47;;;;;;;25.84;17.23;101509.13;1678235;84;22293;-56
2022/05/06 08:05:00;;;;;;;75.13;46.40;;;;;;;25.50;17.34;101494.37;1677824;85;21491;-55
2022/05/06 08:07:27;;;;;;;61.30;35.80;;;;;;;25.55;17.19;101497.89;1682587;83;21569;-56
2022/05/06 08:09:54;;;;;;;46.93;32.10;;;;;;;25.77;17.29;101487.67;1684876;83;21142;-61
2022/05/06 08:12:20;;;;;;;57.67;36.87;;;;;;;25.93;17.17;101496.11;1684413;83;21273;-65
2022/05/06 08:14:47;;;;;;;64.07;43.83;;;;;;;25.96;17.11;101492.39;1684230;83;21288;-55
2022/05/06 08:17:14;;;;;;;83.90;49.17;;;;;;;25.85;17.00;101484.02;1684376;83;21640;-57
2022/05/06 08:19:41;;;;;;;71.80;46.80;;;;;;;25.91;17.27;101481.68;1685257;83;21123;-55
2022/05/06 08:22:08;;;;;;;58.73;35.40;;;;;;;26.24;17.35;101477.61;1684299;83;20967;-56
2022/05/06 08:24:34;;;;;;;58.87;39.33;;;;;;;26.53;17.38;101473.53;1684789;83;21199;-56
2022/05/06 08:27:01;;;;;;;56.47;38.47;;;;;;;26.88;17.06;101486.25;1684207;83;21485;-55
2022/05/06 08:29:28;;;;;;;54.77;36.60;;;;;;;26.88;16.10;101480.90;1684229;83;21070;-56
2022/05/06 08:31:55;;;;;;;46.13;31.13;;;;;;;26.59;16.19;101479.70;1683228;83;21062;-63
2022/05/06 08:34:22;;;;;;;53.20;34.37;;;;;;;26.36;16.17;101492.38;1685107;83;21062;-65
2022/05/06 08:36:49;;;;;;;78.90;56.50;;;;;;;25.86;16.35;101492.30;1684090;83;21239;-56
2022/05/06 08:39:15;;;;;;;79.00;53.57;;;;;;;25.50;16.97;101483.16;1684413;83;21132;-57
2022/05/06 08:41:42;;;;;;;99.43;65.97;;;;;;;25.40;16.96;101487.86;1683738;83;21047;-60
2022/05/06 08:52:34;;;;;;;61.47;44.47;;;;;;;25.76;16.65;101477.52;1684541;83;21073;-57
2022/05/06 08:55:02;;;;;;;58.37;38.53;;;;;;;25.52;17.08;101485.57;1683770;83;21518;-64
2022/05/06 08:57:30;;;;;;;51.53;35.30;;;;;;;25.59;16.99;101479.50;1684292;83;21030;-55
2022/05/06 08:59:57;;;;;;;51.70;35.23;;;;;;;25.75;17.14;101465.20;1683389;83;21086;-56
2022/05/06 09:02:23;;;;;;;119.27;78.90;;;;;;;26.26;16.97;101460.80;1684838;83;21100;-55
2022/05/06 09:04:50;;;;;;;112.33;78.83;;;;;;;26.41;16.31;101458.20;1684014;83;21501;-55
2022/05/06 09:07:21;;;;;;;113.00;79.47;;;;;;;26.32;16.44;101465.09;1687778;83;21035;-56
2022/05/06 09:10:14;;;;;;;98.55;69.17;;;;;;;26.25;16.51;101461.30;1682695;82;25718;-65
2022/05/06 09:12:44;;;;;;;88.43;62.27;;;;;;;26.47;16.41;101458.52;1694094;82;20967;-64
2022/05/06 09:17:59;;;;;;;109.70;76.87;;;;;;;26.41;16.39;101448.31;1693533;82;21067;-57
2022/05/06 09:20:26;;;;;;;90.47;63.70;;;;;;;26.30;16.49;101461.89;1695440;82;21114;-56
2022/05/06 09:22:54;;;;;;;99.23;70.00;;;;;;;26.15;16.19;101482.11;1693320;82;21889;-56
2022/05/06 09:25:39;;;;;;;66.13;49.33;;;;;;;26.04;16.07;101464.39;1694533;82;21141;-57
2022/05/06 09:28:28;;;;;;;58.97;39.67;;;;;;;25.93;16.31;101472.06;1693682;82;21377;-56
2022/05/06 09:31:02;;;;;;;70.80;49.50;;;;;;;25.82;16.54;101459.16;1693263;82;21027;-56
2022/05/06 09:33:37;;;;;;;71.20;47.93;;;;;;;25.94;16.56;101471.80;1694108;82;20996;-56
2022/05/06 09:36:27;;;;;;;81.47;59.10;;;;;;;26.17;16.23;101455.11;1694017;82;21062;-61
2022/05/06 09:39:09;;;;;;;111.83;77.73;;;;;;;26.32;16.04;101461.88;1693732;82;21384;-57
2022/05/06 09:41:40;;;;;;;121.97;86.77;;;;;;;26.27;15.94;101451.17;1694791;82;21148;-65
2022/05/06 09:44:08;;;;;;;119.30;84.30;;;;;;;26.26;16.36;101456.25;1693693;82;21073;-64
2022/05/06 09:46:36;;;;;;;131.27;93.20;;;;;;;26.16;15.74;101448.97;1694455;82;21455;-56
2022/05/06 09:49:04;;;;;;;94.57;67.93;;;;;;;25.74;16.16;101450.25;1693824;82;21082;-56
2022/05/06 09:51:35;;;;;;;68.23;50.13;;;;;;;26.00;16.14;101457.16;1694394;82;20956;-63
2022/05/06 09:54:03;;;;;;;;;;;;;;;26.05;16.09;101437.94;1696367;82;21245;-64
2022/05/06 09:56:31;;;;;;;86.63;59.87;;;;;;;26.32;15.93;101431.14;1694132;82;20342;-56
2022/05/06 09:58:59;;;;;;;87.80;58.60;;;;;;;26.51;15.53;101428.05;1694414;82;21058;-57
2022/05/06 10:01:26;;;;;;;116.93;76.30;;;;;;;26.53;15.83;101451.34;1694450;82;21324;-57
2022/05/06 10:03:54;;;;;;;83.40;58.53;;;;;;;26.49;15.88;101443.57;1693000;82;21015;-64
2022/05/06 10:06:25;;;;;;;78.20;57.70;;;;;;;26.38;15.68;101431.98;1694543;82;21280;-56
2022/05/06 10:08:55;;;;;;;;;;;;;;;26.31;15.95;101432.75;1688596;83;21067;-57
2022/05/06 10:11:28;;;;;;;77.63;54.03;;;;;;;26.36;16.06;101418.06;1684703;83;20218;-63
2022/05/06 10:13:58;;;;;;;78.07;54.70;;;;;;;26.65;15.74;101426.52;1683592;83;22462;-63
2022/05/06 10:16:35;;;;;;;118.53;80.97;;;;;;;26.81;16.11;101433.52;1684719;83;21843;-58
2022/05/06 10:19:02;;;;;;;117.10;86.57;;;;;;;26.83;15.72;101432.73;1684879;83;21246;-56
2022/05/06 10:21:46;;;;;;;92.07;68.37;;;;;;;26.54;15.41;101427.54;1683420;83;21482;-64
2022/05/06 10:24:15;;;;;;;100.47;69.83;;;;;;;26.40;15.46;101442.70;1678523;83;21364;-55
2022/05/06 10:26:47;;;;;;;102.37;74.47;;;;;;;26.23;15.78;101430.03;1685250;83;21115;-56
2022/05/06 10:32:56;;;;;;;88.17;62.00;;;;;;;26.36;15.83;101422.88;1684642;83;21172;-59
2022/05/06 10:35:36;;;;;;;80.33;56.07;;;;;;;26.59;15.72;101416.85;1684885;83;21111;-58
2022/05/06 10:38:25;;;;;;;72.03;50.03;;;;;;;26.42;15.37;101410.34;1682373;83;21584;-58
2022/05/06 10:40:57;;;;;;;54.63;41.33;;;;;;;26.28;15.15;101416.69;1673658;84;21075;-56
2022/05/06 10:43:48;;;;;;;62.00;43.70;;;;;;;26.05;15.30;101418.44;1684692;83;21126;-57
2022/05/06 10:46:36;;;;;;;76.37;54.27;;;;;;;26.01;15.68;101433.37;1683352;84;22297;-58
2022/05/06 10:49:42;;;;;;;87.60;61.87;;;;;;;26.13;15.55;101409.92;1679416;83;21032;-56
2022/05/06 10:52:25;;;;;;;116.07;78.87;;;;;;;26.34;15.50;101400.95;1646238;83;21585;-60
2022/05/06 10:54:55;;;;;;;104.23;73.93;;;;;;;26.40;15.52;101401.27;1683412;83;20998;-58
2022/05/06 10:57:23;;;;;;;101.60;72.63;;;;;;;26.29;15.70;101403.62;1684148;83;21475;-57
2022/05/06 11:00:06;;;;;;;66.80;49.10;;;;;;;26.20;15.57;101405.16;1684481;83;21144;-57
2022/05/06 11:02:35;;;;;;;74.77;55.00;;;;;;;26.26;15.51;101403.33;1683567;83;21102;-65
2022/05/06 11:05:06;;;;;;;69.13;53.07;;;;;;;26.32;15.47;101417.78;1683148;84;21386;-58
2022/05/06 11:07:34;;;;;;;78.40;55.30;;;;;;;26.37;15.80;101405.79;1683649;83;26961;-57
2022/05/06 11:10:14;;;;;;;79.60;56.10;;;;;;;26.40;15.72;101397.76;1684390;83;21040;-58
2022/05/06 11:12:57;;;;;;;75.70;53.80;;;;;;;26.39;15.03;101396.96;1683576;84;21456;-57
2022/05/06 11:15:29;;;;;;;77.40;54.87;;;;;;;26.29;15.54;101394.77;1684200;83;20968;-64
2022/05/06 11:17:58;;;;;;;73.23;54.73;;;;;;;26.48;15.23;101385.79;1683661;83;21952;-58
2022/05/06 11:20:31;;;;;;;109.03;80.20;;;;;;;26.54;14.82;101383.41;1685094;83;21020;-58
2022/05/06 11:23:15;;;;;;;102.43;75.50;;;;;;;26.50;14.99;101387.69;1684637;83;21035;-57
2022/05/06 11:25:47;;;;;;;123.97;90.87;;;;;;;26.27;15.07;101391.56;1683993;83;21239;-65
2022/05/06 11:28:20;;;;;;;96.53;69.33;;;;;;;25.90;15.24;101385.21;1684534;83;21018;-57
2022/05/06 11:30:49;;;;;;;76.10;56.60;;;;;;;25.66;15.46;101384.77;1672988;83;21008;-61
2022/05/06 11:33:31;;;;;;;84.90;54.73;;;;;;;24.74;16.15;101385.77;1684132;83;22107;-55
2022/05/06 11:36:03;;;;;;;110.37;79.67;;;;;;;24.57;16.30;101382.36;1684175;83;21012;-54
2022/05/06 11:38:37;;;;;;;116.20;85.20;;;;;;;24.66;16.47;101371.52;1682746;83;21578;-63
2022/05/06 11:41:12;;;;;;;114.70;79.67;;;;;;;24.63;16.66;101390.71;1676496;83;21748;-56
2022/05/06 11:43:42;;;;;;;104.53;75.17;;;;;;;24.94;16.85;101368.64;1685373;83;21034;-55
2022/05/06 11:49:07;;;;;;;85.40;62.83;;;;;;;25.03;16.19;101370.84;1677629;83;21555;-58
2022/05/06 11:51:39;;;;;;;74.20;51.07;;;;;;;25.17;16.34;101368.89;1684473;83;21901;-62
2022/05/06 11:54:06;;;;;;;66.63;49.50;;;;;;;25.59;16.40;101368.16;1683680;83;21941;-57
2022/05/06 11:56:33;;;;;;;60.57;42.83;;;;;;;25.73;16.61;101371.20;1638636;84;21127;-56
2022/05/06 11:59:01;;;;;;;63.27;48.40;;;;;;;25.73;16.16;101376.00;1683380;84;21857;-57